sensor_id;sensor_type;location;lat;lon;timestamp;temperature;humidity
29539;DHT22;16482;51.046;4.498;2023-03-05T00:01:33;22.70;29.30
29539;DHT22;16482;51.046;4.498;2023-03-05T00:04:01;22.70;29.30
29539;DHT22;16482;51.046;4.498;2023-03-05T00:06:30;22.70;29.30
29539;DHT22;16482;51.046;4.498;2023-03-05T00:09:00;22.70;29.30
29539;DHT22;16482;51.046;4.498;2023-03-05T00:11:34;22.70;29.30
29539;DHT22;16482;51.046;4.498;2023-03-05T00:14:02;22.70;29.30
29539;DHT22;16482;51.046;4.498;2023-03-05T00:16:31;22.70;29.30
29539;DHT22;16482;51.046;4.498;2023-03-05T00:19:00;22.70;29.30
29539;DHT22;16482;51.046;4.498;2023-03-05T00:21:34;22.60;29.30
29539;DHT22;16482;51.046;4.498;2023-03-05T00:24:02;22.70;29.30
29539;DHT22;16482;51.046;4.498;2023-03-05T00:26:34;22.70;29.30
29539;DHT22;16482;51.046;4.498;2023-03-05T00:29:00;22.60;29.30
29539;DHT22;16482;51.046;4.498;2023-03-05T00:31:30;22.60;29.30
29539;DHT22;16482;51.046;4.498;2023-03-05T00:34:03;22.60;29.30
29539;DHT22;16482;51.046;4.498;2023-03-05T00:36:30;22.60;29.40
29539;DHT22;16482;51.046;4.498;2023-03-05T00:39:07;22.60;29.30
29539;DHT22;16482;51.046;4.498;2023-03-05T00:41:32;22.60;29.30
29539;DHT22;16482;51.046;4.498;2023-03-05T00:43:58;22.50;29.30
29539;DHT22;16482;51.046;4.498;2023-03-05T00:46:28;22.60;29.40
29539;DHT22;16482;51.046;4.498;2023-03-05T00:49:03;22.60;29.40
29539;DHT22;16482;51.046;4.498;2023-03-05T00:51:29;22.60;29.40
29539;DHT22;16482;51.046;4.498;2023-03-05T00:53:58;22.60;29.40
29539;DHT22;16482;51.046;4.498;2023-03-05T00:56:32;22.50;29.40
29539;DHT22;16482;51.046;4.498;2023-03-05T00:59:00;22.50;29.40
29539;DHT22;16482;51.046;4.498;2023-03-05T01:01:29;22.50;29.40
29539;DHT22;16482;51.046;4.498;2023-03-05T01:04:02;22.50;29.40
29539;DHT22;16482;51.046;4.498;2023-03-05T01:06:28;22.50;29.40
29539;DHT22;16482;51.046;4.498;2023-03-05T01:08:57;22.50;29.40
29539;DHT22;16482;51.046;4.498;2023-03-05T01:11:31;22.50;29.30
29539;DHT22;16482;51.046;4.498;2023-03-05T01:13:57;22.50;29.30
29539;DHT22;16482;51.046;4.498;2023-03-05T01:16:30;22.50;29.30
29539;DHT22;16482;51.046;4.498;2023-03-05T01:18:59;22.50;29.40
29539;DHT22;16482;51.046;4.498;2023-03-05T01:21:30;22.50;29.30
29539;DHT22;16482;51.046;4.498;2023-03-05T01:24:01;22.50;29.30
29539;DHT22;16482;51.046;4.498;2023-03-05T01:26:29;22.50;29.40
29539;DHT22;16482;51.046;4.498;2023-03-05T01:29:03;22.50;29.40
29539;DHT22;16482;51.046;4.498;2023-03-05T01:31:32;22.50;29.40
29539;DHT22;16482;51.046;4.498;2023-03-05T01:34:01;22.40;29.30
29539;DHT22;16482;51.046;4.498;2023-03-05T01:36:34;22.50;29.40
29539;DHT22;16482;51.046;4.498;2023-03-05T01:39:00;22.40;29.40
29539;DHT22;16482;51.046;4.498;2023-03-05T01:41:30;22.40;29.40
29539;DHT22;16482;51.046;4.498;2023-03-05T01:44:00;22.40;29.40
29539;DHT22;16482;51.046;4.498;2023-03-05T01:46:36;22.40;29.40
29539;DHT22;16482;51.046;4.498;2023-03-05T01:49:23;22.40;29.40
29539;DHT22;16482;51.046;4.498;2023-03-05T01:52:21;22.40;29.30
29539;DHT22;16482;51.046;4.498;2023-03-05T01:54:59;22.40;29.40
29539;DHT22;16482;51.046;4.498;2023-03-05T01:57:30;22.40;29.40
29539;DHT22;16482;51.046;4.498;2023-03-05T02:00:06;22.40;29.30
29539;DHT22;16482;51.046;4.498;2023-03-05T02:02:33;22.40;29.40
29539;DHT22;16482;51.046;4.498;2023-03-05T02:05:06;22.40;29.40
29539;DHT22;16482;51.046;4.498;2023-03-05T02:07:34;22.40;29.40
29539;DHT22;16482;51.046;4.498;2023-03-05T02:12:43;22.40;29.30
29539;DHT22;16482;51.046;4.498;2023-03-05T02:15:10;22.40;29.40
29539;DHT22;16482;51.046;4.498;2023-03-05T02:17:36;22.40;29.40
29539;DHT22;16482;51.046;4.498;2023-03-05T02:20:08;22.40;29.40
29539;DHT22;16482;51.046;4.498;2023-03-05T02:22:34;22.40;29.40
29539;DHT22;16482;51.046;4.498;2023-03-05T02:25:01;22.40;29.40
29539;DHT22;16482;51.046;4.498;2023-03-05T02:27:30;22.40;29.40
29539;DHT22;16482;51.046;4.498;2023-03-05T02:30:00;22.40;29.40
29539;DHT22;16482;51.046;4.498;2023-03-05T02:32:27;22.40;29.40
29539;DHT22;16482;51.046;4.498;2023-03-05T02:34:53;22.40;29.40
29539;DHT22;16482;51.046;4.498;2023-03-05T02:37:21;22.40;29.40
29539;DHT22;16482;51.046;4.498;2023-03-05T02:39:50;22.40;29.40
29539;DHT22;16482;51.046;4.498;2023-03-05T02:42:19;22.40;29.90
29539;DHT22;16482;51.046;4.498;2023-03-05T02:44:53;22.30;29.40
29539;DHT22;16482;51.046;4.498;2023-03-05T02:47:22;22.30;29.40
29539;DHT22;16482;51.046;4.498;2023-03-05T02:49:48;22.30;29.40
29539;DHT22;16482;51.046;4.498;2023-03-05T02:52:20;22.30;29.50
29539;DHT22;16482;51.046;4.498;2023-03-05T02:54:50;22.30;29.40
29539;DHT22;16482;51.046;4.498;2023-03-05T02:57:25;22.30;29.40
29539;DHT22;16482;51.046;4.498;2023-03-05T02:59:51;22.30;29.80
29539;DHT22;16482;51.046;4.498;2023-03-05T03:02:20;22.30;29.40
29539;DHT22;16482;51.046;4.498;2023-03-05T03:04:49;22.30;29.40
29539;DHT22;16482;51.046;4.498;2023-03-05T03:07:24;22.30;29.40
29539;DHT22;16482;51.046;4.498;2023-03-05T03:09:50;22.30;29.40
29539;DHT22;16482;51.046;4.498;2023-03-05T03:12:18;22.30;29.40
29539;DHT22;16482;51.046;4.498;2023-03-05T03:14:50;22.30;29.50
29539;DHT22;16482;51.046;4.498;2023-03-05T03:17:19;22.30;29.40
29539;DHT22;16482;51.046;4.498;2023-03-05T03:19:52;22.30;29.40
29539;DHT22;16482;51.046;4.498;2023-03-05T03:22:18;22.30;29.50
29539;DHT22;16482;51.046;4.498;2023-03-05T03:24:49;22.30;29.50
29539;DHT22;16482;51.046;4.498;2023-03-05T03:27:24;22.30;29.50
29539;DHT22;16482;51.046;4.498;2023-03-05T03:29:50;22.20;29.40
29539;DHT22;16482;51.046;4.498;2023-03-05T03:32:23;22.30;29.50
29539;DHT22;16482;51.046;4.498;2023-03-05T03:34:49;22.30;29.40
29539;DHT22;16482;51.046;4.498;2023-03-05T03:37:18;22.30;29.40
29539;DHT22;16482;51.046;4.498;2023-03-05T03:39:51;22.30;29.40
29539;DHT22;16482;51.046;4.498;2023-03-05T03:42:18;22.30;29.40
29539;DHT22;16482;51.046;4.498;2023-03-05T03:44:48;22.20;29.40
29539;DHT22;16482;51.046;4.498;2023-03-05T03:47:22;22.30;29.50
29539;DHT22;16482;51.046;4.498;2023-03-05T03:49:53;22.20;29.40
29539;DHT22;16482;51.046;4.498;2023-03-05T03:52:19;22.20;29.50
29539;DHT22;16482;51.046;4.498;2023-03-05T03:54:49;22.20;29.50
29539;DHT22;16482;51.046;4.498;2023-03-05T03:57:19;22.20;29.50
29539;DHT22;16482;51.046;4.498;2023-03-05T03:59:52;22.20;29.50
29539;DHT22;16482;51.046;4.498;2023-03-05T04:02:18;22.20;29.50
29539;DHT22;16482;51.046;4.498;2023-03-05T04:04:51;22.20;29.50
29539;DHT22;16482;51.046;4.498;2023-03-05T04:07:20;22.20;29.50
29539;DHT22;16482;51.046;4.498;2023-03-05T04:09:49;22.20;29.50
29539;DHT22;16482;51.046;4.498;2023-03-05T04:12:22;22.20;29.50
29539;DHT22;16482;51.046;4.498;2023-03-05T04:14:51;22.20;29.50
29539;DHT22;16482;51.046;4.498;2023-03-05T04:17:19;22.20;29.50
29539;DHT22;16482;51.046;4.498;2023-03-05T04:19:48;22.20;29.50
29539;DHT22;16482;51.046;4.498;2023-03-05T04:22:19;22.20;30.00
29539;DHT22;16482;51.046;4.498;2023-03-05T04:24:48;22.20;29.50
29539;DHT22;16482;51.046;4.498;2023-03-05T04:27:22;22.20;29.50
29539;DHT22;16482;51.046;4.498;2023-03-05T04:29:48;22.10;29.50
29539;DHT22;16482;51.046;4.498;2023-03-05T04:32:14;22.20;29.60
29539;DHT22;16482;51.046;4.498;2023-03-05T04:34:48;22.20;29.60
29539;DHT22;16482;51.046;4.498;2023-03-05T04:37:24;22.10;29.60
29539;DHT22;16482;51.046;4.498;2023-03-05T04:39:51;22.10;29.50
29539;DHT22;16482;51.046;4.498;2023-03-05T04:42:20;22.10;29.50
29539;DHT22;16482;51.046;4.498;2023-03-05T04:44:51;22.20;29.60
29539;DHT22;16482;51.046;4.498;2023-03-05T04:47:19;22.10;29.60
29539;DHT22;16482;51.046;4.498;2023-03-05T04:49:48;22.10;29.60
29539;DHT22;16482;51.046;4.498;2023-03-05T04:52:21;22.10;29.60
29539;DHT22;16482;51.046;4.498;2023-03-05T04:54:50;22.10;29.60
29539;DHT22;16482;51.046;4.498;2023-03-05T04:57:23;22.10;29.60
29539;DHT22;16482;51.046;4.498;2023-03-05T04:59:52;22.10;29.60
29539;DHT22;16482;51.046;4.498;2023-03-05T05:02:20;22.10;29.60
29539;DHT22;16482;51.046;4.498;2023-03-05T05:04:52;22.10;29.60
29539;DHT22;16482;51.046;4.498;2023-03-05T05:07:17;22.10;29.60
29539;DHT22;16482;51.046;4.498;2023-03-05T05:09:51;22.10;29.60
29539;DHT22;16482;51.046;4.498;2023-03-05T05:12:17;22.10;29.60
29539;DHT22;16482;51.046;4.498;2023-03-05T05:14:50;22.10;29.60
29539;DHT22;16482;51.046;4.498;2023-03-05T05:17:19;22.10;29.60
29539;DHT22;16482;51.046;4.498;2023-03-05T05:19:54;22.10;29.60
29539;DHT22;16482;51.046;4.498;2023-03-05T05:22:20;22.10;29.60
29539;DHT22;16482;51.046;4.498;2023-03-05T05:24:51;22.10;29.60
29539;DHT22;16482;51.046;4.498;2023-03-05T05:27:20;22.10;29.60
29539;DHT22;16482;51.046;4.498;2023-03-05T05:29:55;22.10;29.60
29539;DHT22;16482;51.046;4.498;2023-03-05T05:32:23;22.10;29.60
29539;DHT22;16482;51.046;4.498;2023-03-05T05:34:54;22.10;29.60
29539;DHT22;16482;51.046;4.498;2023-03-05T05:37:24;22.00;29.60
29539;DHT22;16482;51.046;4.498;2023-03-05T05:39:50;22.10;29.60
29539;DHT22;16482;51.046;4.498;2023-03-05T05:42:21;22.10;29.60
29539;DHT22;16482;51.046;4.498;2023-03-05T05:44:50;22.00;29.60
29539;DHT22;16482;51.046;4.498;2023-03-05T05:47:23;22.00;29.60
29539;DHT22;16482;51.046;4.498;2023-03-05T05:49:52;22.00;29.60
29539;DHT22;16482;51.046;4.498;2023-03-05T05:52:20;22.00;29.60
29539;DHT22;16482;51.046;4.498;2023-03-05T05:54:49;22.00;29.60
29539;DHT22;16482;51.046;4.498;2023-03-05T05:57:20;22.00;29.60
29539;DHT22;16482;51.046;4.498;2023-03-05T05:59:54;22.00;29.60
29539;DHT22;16482;51.046;4.498;2023-03-05T06:02:22;22.00;29.60
29539;DHT22;16482;51.046;4.498;2023-03-05T06:04:56;22.00;29.60
29539;DHT22;16482;51.046;4.498;2023-03-05T06:07:22;22.00;29.60
29539;DHT22;16482;51.046;4.498;2023-03-05T06:09:55;22.00;29.70
29539;DHT22;16482;51.046;4.498;2023-03-05T06:12:21;22.00;29.70
29539;DHT22;16482;51.046;4.498;2023-03-05T06:14:49;22.00;29.80
29539;DHT22;16482;51.046;4.498;2023-03-05T06:17:23;22.00;29.90
29539;DHT22;16482;51.046;4.498;2023-03-05T06:19:49;22.00;29.90
29539;DHT22;16482;51.046;4.498;2023-03-05T06:22:21;22.10;29.90
29539;DHT22;16482;51.046;4.498;2023-03-05T06:24:55;22.10;29.90
29539;DHT22;16482;51.046;4.498;2023-03-05T06:27:21;22.10;30.30
29539;DHT22;16482;51.046;4.498;2023-03-05T06:29:56;22.20;29.90
29539;DHT22;16482;51.046;4.498;2023-03-05T06:32:22;22.20;29.80
29539;DHT22;16482;51.046;4.498;2023-03-05T06:34:49;22.30;29.80
29539;DHT22;16482;51.046;4.498;2023-03-05T06:37:15;22.30;29.80
29539;DHT22;16482;51.046;4.498;2023-03-05T06:39:49;22.40;29.80
29539;DHT22;16482;51.046;4.498;2023-03-05T06:42:21;22.40;29.80
29539;DHT22;16482;51.046;4.498;2023-03-05T06:44:56;22.40;30.20
29539;DHT22;16482;51.046;4.498;2023-03-05T06:47:25;22.50;29.70
29539;DHT22;16482;51.046;4.498;2023-03-05T06:49:51;22.50;29.70
29539;DHT22;16482;51.046;4.498;2023-03-05T06:52:22;22.60;29.70
29539;DHT22;16482;51.046;4.498;2023-03-05T06:54:57;22.60;29.70
29539;DHT22;16482;51.046;4.498;2023-03-05T06:57:23;22.70;29.60
29539;DHT22;16482;51.046;4.498;2023-03-05T06:59:52;22.70;29.60
29539;DHT22;16482;51.046;4.498;2023-03-05T07:02:23;22.70;29.60
29539;DHT22;16482;51.046;4.498;2023-03-05T07:04:57;22.80;29.60
29539;DHT22;16482;51.046;4.498;2023-03-05T07:07:23;22.80;29.50
29539;DHT22;16482;51.046;4.498;2023-03-05T07:09:56;22.80;29.50
29539;DHT22;16482;51.046;4.498;2023-03-05T07:12:22;22.80;29.50
29539;DHT22;16482;51.046;4.498;2023-03-05T07:14:55;22.90;29.60
29539;DHT22;16482;51.046;4.498;2023-03-05T07:17:23;22.80;29.50
29539;DHT22;16482;51.046;4.498;2023-03-05T07:19:57;22.90;29.50
29539;DHT22;16482;51.046;4.498;2023-03-05T07:22:26;22.90;29.50
29539;DHT22;16482;51.046;4.498;2023-03-05T07:24:54;22.90;29.50
29539;DHT22;16482;51.046;4.498;2023-03-05T07:27:20;22.90;29.50
29539;DHT22;16482;51.046;4.498;2023-03-05T07:29:56;23.00;29.50
29539;DHT22;16482;51.046;4.498;2023-03-05T07:32:22;23.00;29.40
29539;DHT22;16482;51.046;4.498;2023-03-05T07:34:56;23.00;29.40
29539;DHT22;16482;51.046;4.498;2023-03-05T07:37:21;23.00;29.40
29539;DHT22;16482;51.046;4.498;2023-03-05T07:39:57;23.00;29.40
29539;DHT22;16482;51.046;4.498;2023-03-05T07:42:23;23.00;29.40
29539;DHT22;16482;51.046;4.498;2023-03-05T07:44:56;23.00;29.40
29539;DHT22;16482;51.046;4.498;2023-03-05T07:47:23;23.00;29.40
29539;DHT22;16482;51.046;4.498;2023-03-05T07:49:52;23.10;29.40
29539;DHT22;16482;51.046;4.498;2023-03-05T07:52:21;23.10;29.40
29539;DHT22;16482;51.046;4.498;2023-03-05T07:54:54;23.10;29.40
29539;DHT22;16482;51.046;4.498;2023-03-05T07:57:22;23.10;29.30
29539;DHT22;16482;51.046;4.498;2023-03-05T07:59:55;23.10;29.30
29539;DHT22;16482;51.046;4.498;2023-03-05T08:02:21;23.20;29.30
29539;DHT22;16482;51.046;4.498;2023-03-05T08:04:55;23.20;29.30
29539;DHT22;16482;51.046;4.498;2023-03-05T08:07:21;23.20;29.30
29539;DHT22;16482;51.046;4.498;2023-03-05T08:09:54;23.20;29.30
29539;DHT22;16482;51.046;4.498;2023-03-05T08:12:22;23.20;29.30
29539;DHT22;16482;51.046;4.498;2023-03-05T08:14:56;23.20;29.30
29539;DHT22;16482;51.046;4.498;2023-03-05T08:17:21;23.20;29.30
29539;DHT22;16482;51.046;4.498;2023-03-05T08:19:55;23.20;29.30
29539;DHT22;16482;51.046;4.498;2023-03-05T08:22:25;23.20;29.30
29539;DHT22;16482;51.046;4.498;2023-03-05T08:24:53;23.20;29.30
29539;DHT22;16482;51.046;4.498;2023-03-05T08:27:22;23.20;29.30
29539;DHT22;16482;51.046;4.498;2023-03-05T08:29:57;23.20;29.30
29539;DHT22;16482;51.046;4.498;2023-03-05T08:32:25;23.20;29.30
29539;DHT22;16482;51.046;4.498;2023-03-05T08:34:57;23.20;29.40
29539;DHT22;16482;51.046;4.498;2023-03-05T08:37:23;23.20;29.30
29539;DHT22;16482;51.046;4.498;2023-03-05T08:39:52;23.20;29.30
29539;DHT22;16482;51.046;4.498;2023-03-05T08:42:22;23.20;29.30
29539;DHT22;16482;51.046;4.498;2023-03-05T08:44:56;23.20;29.40
29539;DHT22;16482;51.046;4.498;2023-03-05T08:47:22;23.30;29.50
29539;DHT22;16482;51.046;4.498;2023-03-05T08:49:57;23.30;29.50
29539;DHT22;16482;51.046;4.498;2023-03-05T08:52:23;23.30;29.50
29539;DHT22;16482;51.046;4.498;2023-03-05T08:54:49;23.20;29.40
29539;DHT22;16482;51.046;4.498;2023-03-05T08:57:23;23.20;29.50
29539;DHT22;16482;51.046;4.498;2023-03-05T08:59:58;23.20;29.50
29539;DHT22;16482;51.046;4.498;2023-03-05T09:02:24;23.30;29.50
29539;DHT22;16482;51.046;4.498;2023-03-05T09:04:52;23.30;29.50
29539;DHT22;16482;51.046;4.498;2023-03-05T09:07:21;23.30;29.60
29539;DHT22;16482;51.046;4.498;2023-03-05T09:09:54;23.30;29.60
29539;DHT22;16482;51.046;4.498;2023-03-05T09:12:20;23.30;29.60
29539;DHT22;16482;51.046;4.498;2023-03-05T09:14:49;23.30;29.60
29539;DHT22;16482;51.046;4.498;2023-03-05T09:17:23;23.30;29.60
29539;DHT22;16482;51.046;4.498;2023-03-05T09:19:56;23.20;29.50
29539;DHT22;16482;51.046;4.498;2023-03-05T09:22:22;23.30;29.60
29539;DHT22;16482;51.046;4.498;2023-03-05T09:24:56;23.30;29.60
29539;DHT22;16482;51.046;4.498;2023-03-05T09:27:24;23.30;29.60
29539;DHT22;16482;51.046;4.498;2023-03-05T09:29:57;23.30;29.60
29539;DHT22;16482;51.046;4.498;2023-03-05T09:32:23;23.30;29.60
29539;DHT22;16482;51.046;4.498;2023-03-05T09:34:52;23.30;29.60
29539;DHT22;16482;51.046;4.498;2023-03-05T09:37:27;23.30;29.60
29539;DHT22;16482;51.046;4.498;2023-03-05T09:39:54;23.40;29.70
29539;DHT22;16482;51.046;4.498;2023-03-05T09:45:06;23.40;29.70
29539;DHT22;16482;51.046;4.498;2023-03-05T09:48:09;23.50;29.80
29539;DHT22;16482;51.046;4.498;2023-03-05T09:50:44;23.50;29.80
29539;DHT22;16482;51.046;4.498;2023-03-05T09:55:59;23.50;29.80
29539;DHT22;16482;51.046;4.498;2023-03-05T10:06:25;23.60;29.80
29539;DHT22;16482;51.046;4.498;2023-03-05T10:09:16;23.60;29.80
29539;DHT22;16482;51.046;4.498;2023-03-05T10:12:06;23.60;29.80
29539;DHT22;16482;51.046;4.498;2023-03-05T10:14:35;23.60;29.80
29539;DHT22;16482;51.046;4.498;2023-03-05T10:17:15;23.70;29.80
29539;DHT22;16482;51.046;4.498;2023-03-05T10:22:57;23.70;29.80
29539;DHT22;16482;51.046;4.498;2023-03-05T10:31:05;23.70;29.80
29539;DHT22;16482;51.046;4.498;2023-03-05T10:33:39;23.70;29.80
29539;DHT22;16482;51.046;4.498;2023-03-05T10:41:32;23.70;29.80
29539;DHT22;16482;51.046;4.498;2023-03-05T10:46:48;23.80;29.80
29539;DHT22;16482;51.046;4.498;2023-03-05T10:49:19;23.70;29.70
29539;DHT22;16482;51.046;4.498;2023-03-05T10:54:27;23.70;29.70
29539;DHT22;16482;51.046;4.498;2023-03-05T11:02:56;23.80;29.70
29539;DHT22;16482;51.046;4.498;2023-03-05T11:08:39;23.80;29.80
29539;DHT22;16482;51.046;4.498;2023-03-05T11:11:11;23.80;29.70
29539;DHT22;16482;51.046;4.498;2023-03-05T11:14:04;23.80;29.70
29539;DHT22;16482;51.046;4.498;2023-03-05T11:16:33;23.80;29.70
29539;DHT22;16482;51.046;4.498;2023-03-05T11:19:26;23.80;29.70
29539;DHT22;16482;51.046;4.498;2023-03-05T11:22:23;23.70;29.60
29539;DHT22;16482;51.046;4.498;2023-03-05T11:25:15;23.70;29.70
29539;DHT22;16482;51.046;4.498;2023-03-05T11:27:57;23.80;29.70
29539;DHT22;16482;51.046;4.498;2023-03-05T11:30:27;23.70;29.70
29539;DHT22;16482;51.046;4.498;2023-03-05T11:33:15;23.70;29.70
29539;DHT22;16482;51.046;4.498;2023-03-05T11:35:43;23.70;30.10
29539;DHT22;16482;51.046;4.498;2023-03-05T11:38:19;23.70;29.70
29539;DHT22;16482;51.046;4.498;2023-03-05T11:40:46;23.70;29.70
29539;DHT22;16482;51.046;4.498;2023-03-05T11:43:18;23.70;29.70
29539;DHT22;16482;51.046;4.498;2023-03-05T11:45:48;23.70;29.70
29539;DHT22;16482;51.046;4.498;2023-03-05T11:48:19;23.80;29.70
29539;DHT22;16482;51.046;4.498;2023-03-05T11:50:50;23.70;29.60
29539;DHT22;16482;51.046;4.498;2023-03-05T11:53:24;23.70;29.60
29539;DHT22;16482;51.046;4.498;2023-03-05T11:56:03;23.70;29.70
29539;DHT22;16482;51.046;4.498;2023-03-05T12:01:42;23.70;29.60
29539;DHT22;16482;51.046;4.498;2023-03-05T12:04:08;23.70;29.60
29539;DHT22;16482;51.046;4.498;2023-03-05T12:09:26;23.70;29.70
29539;DHT22;16482;51.046;4.498;2023-03-05T12:20:45;23.70;29.70
29539;DHT22;16482;51.046;4.498;2023-03-05T12:23:19;23.70;29.70
29539;DHT22;16482;51.046;4.498;2023-03-05T12:25:51;23.70;29.70
29539;DHT22;16482;51.046;4.498;2023-03-05T12:31:20;23.70;29.80
29539;DHT22;16482;51.046;4.498;2023-03-05T12:37:13;23.70;29.70
29539;DHT22;16482;51.046;4.498;2023-03-05T12:47:45;23.70;29.70
29539;DHT22;16482;51.046;4.498;2023-03-05T12:58:23;23.70;29.70
29539;DHT22;16482;51.046;4.498;2023-03-05T13:03:42;23.70;29.70
29539;DHT22;16482;51.046;4.498;2023-03-05T13:06:34;23.60;29.60
29539;DHT22;16482;51.046;4.498;2023-03-05T13:11:43;23.70;29.60
29539;DHT22;16482;51.046;4.498;2023-03-05T13:16:54;23.70;29.60
29539;DHT22;16482;51.046;4.498;2023-03-05T13:19:20;23.70;29.60
29539;DHT22;16482;51.046;4.498;2023-03-05T13:21:57;23.70;29.60
29539;DHT22;16482;51.046;4.498;2023-03-05T13:24:24;23.70;29.60
29539;DHT22;16482;51.046;4.498;2023-03-05T13:26:50;23.70;29.60
29539;DHT22;16482;51.046;4.498;2023-03-05T13:29:21;23.70;29.60
29539;DHT22;16482;51.046;4.498;2023-03-05T13:31:59;23.70;29.60
29539;DHT22;16482;51.046;4.498;2023-03-05T13:34:34;23.70;29.60
29539;DHT22;16482;51.046;4.498;2023-03-05T13:37:03;23.70;29.60
29539;DHT22;16482;51.046;4.498;2023-03-05T13:39:36;23.70;29.60
29539;DHT22;16482;51.046;4.498;2023-03-05T13:42:28;23.70;29.60
29539;DHT22;16482;51.046;4.498;2023-03-05T13:44:59;23.70;29.60
29539;DHT22;16482;51.046;4.498;2023-03-05T13:47:27;23.80;29.60
29539;DHT22;16482;51.046;4.498;2023-03-05T13:49:58;23.70;29.60
29539;DHT22;16482;51.046;4.498;2023-03-05T13:52:33;23.70;30.00
29539;DHT22;16482;51.046;4.498;2023-03-05T13:55:00;23.80;29.70
29539;DHT22;16482;51.046;4.498;2023-03-05T14:00:06;23.70;29.70
29539;DHT22;16482;51.046;4.498;2023-03-05T14:02:32;23.70;29.70
29539;DHT22;16482;51.046;4.498;2023-03-05T14:04:59;23.80;29.80
29539;DHT22;16482;51.046;4.498;2023-03-05T14:07:38;23.80;29.80
29539;DHT22;16482;51.046;4.498;2023-03-05T14:10:35;23.70;29.70
29539;DHT22;16482;51.046;4.498;2023-03-05T14:13:16;23.70;29.80
29539;DHT22;16482;51.046;4.498;2023-03-05T14:16:02;23.70;29.70
29539;DHT22;16482;51.046;4.498;2023-03-05T14:18:28;23.80;29.80
29539;DHT22;16482;51.046;4.498;2023-03-05T14:21:00;23.80;29.80
29539;DHT22;16482;51.046;4.498;2023-03-05T14:23:46;23.70;29.80
29539;DHT22;16482;51.046;4.498;2023-03-05T14:26:27;23.70;29.80
29539;DHT22;16482;51.046;4.498;2023-03-05T14:29:11;23.70;29.90
29539;DHT22;16482;51.046;4.498;2023-03-05T14:32:05;23.70;29.90
29539;DHT22;16482;51.046;4.498;2023-03-05T14:34:35;23.80;29.80
29539;DHT22;16482;51.046;4.498;2023-03-05T14:37:14;23.70;29.80
29539;DHT22;16482;51.046;4.498;2023-03-05T14:39:56;23.80;29.80
29539;DHT22;16482;51.046;4.498;2023-03-05T14:45:18;23.80;29.80
29539;DHT22;16482;51.046;4.498;2023-03-05T14:47:45;23.80;29.80
29539;DHT22;16482;51.046;4.498;2023-03-05T14:50:46;23.80;29.80
29539;DHT22;16482;51.046;4.498;2023-03-05T14:53:19;23.70;29.90
29539;DHT22;16482;51.046;4.498;2023-03-05T14:55:51;23.80;29.90
29539;DHT22;16482;51.046;4.498;2023-03-05T14:58:23;23.80;29.90
29539;DHT22;16482;51.046;4.498;2023-03-05T15:00:51;23.80;29.90
29539;DHT22;16482;51.046;4.498;2023-03-05T15:03:19;23.70;29.90
29539;DHT22;16482;51.046;4.498;2023-03-05T15:05:47;23.80;29.90
29539;DHT22;16482;51.046;4.498;2023-03-05T15:08:16;23.80;29.90
29539;DHT22;16482;51.046;4.498;2023-03-05T15:10:45;23.80;29.90
29539;DHT22;16482;51.046;4.498;2023-03-05T15:13:14;23.80;29.90
29539;DHT22;16482;51.046;4.498;2023-03-05T15:15:45;23.80;30.00
29539;DHT22;16482;51.046;4.498;2023-03-05T15:18:17;23.80;29.90
29539;DHT22;16482;51.046;4.498;2023-03-05T15:20:44;23.80;29.90
29539;DHT22;16482;51.046;4.498;2023-03-05T15:23:14;23.80;29.90
29539;DHT22;16482;51.046;4.498;2023-03-05T15:25:45;23.80;29.80
29539;DHT22;16482;51.046;4.498;2023-03-05T15:28:12;23.80;29.90
29539;DHT22;16482;51.046;4.498;2023-03-05T15:30:47;23.70;29.90
29539;DHT22;16482;51.046;4.498;2023-03-05T15:33:15;23.70;29.90
29539;DHT22;16482;51.046;4.498;2023-03-05T15:35:41;23.70;29.90
29539;DHT22;16482;51.046;4.498;2023-03-05T15:38:16;23.80;29.90
29539;DHT22;16482;51.046;4.498;2023-03-05T15:40:42;23.80;29.90
29539;DHT22;16482;51.046;4.498;2023-03-05T15:43:14;23.80;29.90
29539;DHT22;16482;51.046;4.498;2023-03-05T15:45:43;23.80;29.90
29539;DHT22;16482;51.046;4.498;2023-03-05T15:48:17;23.80;29.80
29539;DHT22;16482;51.046;4.498;2023-03-05T15:50:43;23.80;29.80
29539;DHT22;16482;51.046;4.498;2023-03-05T15:53:14;23.80;29.80
29539;DHT22;16482;51.046;4.498;2023-03-05T15:55:44;23.80;29.70
29539;DHT22;16482;51.046;4.498;2023-03-05T15:58:15;23.80;29.70
29539;DHT22;16482;51.046;4.498;2023-03-05T16:00:50;23.80;29.70
29539;DHT22;16482;51.046;4.498;2023-03-05T16:03:16;23.90;29.70
29539;DHT22;16482;51.046;4.498;2023-03-05T16:05:42;23.80;29.70
29539;DHT22;16482;51.046;4.498;2023-03-05T16:08:16;23.80;29.70
29539;DHT22;16482;51.046;4.498;2023-03-05T16:10:49;23.80;29.70
29539;DHT22;16482;51.046;4.498;2023-03-05T16:13:16;23.80;29.70
29539;DHT22;16482;51.046;4.498;2023-03-05T16:15:42;23.80;29.70
29539;DHT22;16482;51.046;4.498;2023-03-05T16:18:21;23.80;29.70
29539;DHT22;16482;51.046;4.498;2023-03-05T16:20:47;23.80;29.70
29539;DHT22;16482;51.046;4.498;2023-03-05T16:23:14;23.80;29.60
29539;DHT22;16482;51.046;4.498;2023-03-05T16:25:43;23.80;29.60
29539;DHT22;16482;51.046;4.498;2023-03-05T16:28:16;23.90;29.60
29539;DHT22;16482;51.046;4.498;2023-03-05T16:30:53;23.90;29.60
29539;DHT22;16482;51.046;4.498;2023-03-05T16:33:23;23.80;29.60
29539;DHT22;16482;51.046;4.498;2023-03-05T16:36:16;23.80;29.50
29539;DHT22;16482;51.046;4.498;2023-03-05T16:38:37;23.80;29.50
29539;DHT22;16482;51.046;4.498;2023-03-05T16:41:03;23.80;29.50
29539;DHT22;16482;51.046;4.498;2023-03-05T16:43:29;23.80;29.50
29539;DHT22;16482;51.046;4.498;2023-03-05T16:45:55;23.80;29.50
29539;DHT22;16482;51.046;4.498;2023-03-05T16:48:21;23.80;29.50
29539;DHT22;16482;51.046;4.498;2023-03-05T16:50:47;23.80;29.40
29539;DHT22;16482;51.046;4.498;2023-03-05T16:53:15;23.80;29.40
29539;DHT22;16482;51.046;4.498;2023-03-05T16:55:41;23.80;29.40
29539;DHT22;16482;51.046;4.498;2023-03-05T16:58:13;23.80;29.40
29539;DHT22;16482;51.046;4.498;2023-03-05T17:00:46;23.80;29.40
29539;DHT22;16482;51.046;4.498;2023-03-05T17:03:13;23.70;29.40
29539;DHT22;16482;51.046;4.498;2023-03-05T17:05:48;23.70;29.40
29539;DHT22;16482;51.046;4.498;2023-03-05T17:08:14;23.70;29.40
29539;DHT22;16482;51.046;4.498;2023-03-05T17:10:44;23.70;29.40
29539;DHT22;16482;51.046;4.498;2023-03-05T17:13:18;23.70;29.40
29539;DHT22;16482;51.046;4.498;2023-03-05T17:15:44;23.70;29.40
29539;DHT22;16482;51.046;4.498;2023-03-05T17:18:15;23.70;29.40
29539;DHT22;16482;51.046;4.498;2023-03-05T17:20:44;23.70;29.30
29539;DHT22;16482;51.046;4.498;2023-03-05T17:23:12;23.70;29.30
29539;DHT22;16482;51.046;4.498;2023-03-05T17:25:46;23.70;29.30
29539;DHT22;16482;51.046;4.498;2023-03-05T17:28:14;23.70;29.30
29539;DHT22;16482;51.046;4.498;2023-03-05T17:30:49;23.60;29.20